Freeman Knoll, MA

4:35 AM EDT on April 28, 2017 (GMT -0400)
Westover Air Reserve Base / Metropolitan Airport | | Change Station

Elev 243 ft 42.20 °N, 72.53 °W | Updated 5 minutes ago

Overcast
Overcast
59 °F
Feels Like 59 °F
N
0
Wind Variable Wind from North

Today
High -- | Low -- °F
--% Chance of Precip.
Yesterday
High -- | Low -- °F
Precip. -- in
Pressure 29.90 in
Visibility 1.8 miles
Clouds Overcast 200 ft
Dew Point 57 °F
Humidity 94%
Rainfall 0.00 in
Snow Depth Not available.
5:49 AM 7:46 PM
Waxing Crescent, 5% visible
SPECI KCEF 280830Z AUTO 00000KT 1 3/4SM R23/4000FT BR OVC002 15/14 A2988 RMK AO2 RAB20E21DZB21E30 SLP124
Pressure 29.90 in
Visibility 1.8 miles
Clouds Overcast 200 ft
Dew Point 57 °F
Humidity 94%
Rainfall 0.00 in
Snow Depth Not available.
5:49 AM 7:46 PM
Waxing Crescent, 5% visible
SPECI KCEF 280830Z AUTO 00000KT 1 3/4SM R23/4000FT BR OVC002 15/14 A2988 RMK AO2 RAB20E21DZB21E30 SLP124

Get Severe Weather Alerts

Thanks for signing up!

Be on the lookout for a verification email in your inbox.

You'll start receiving the daily forecast at 8 AM.

×

10-Day Weather Forecast

Almanac

Astronomy

Apr. 28, 2017 Rise Set
Actual Time
Civil Twilight
Nautical Twilight
Astronomical Twilight
Moon
Length of Visible Light
Length of Day
Tomorrow will be .
, % of the Moon is Illuminated

Today's Extremes

State Highs State Lows

Community

WunderPhotos

WunderBlog® & News

Nearby

Air Quality

  Air Quality AQ Index Pollutant
Not available.

Snow Depth

Station Depth Elevation

Earthquake Activity

City Distance Mag. Time & Date
Minimum magnitude displayed is 2.5.

Coastal Water Temperatures

Place Temperature

Stations

Nearby Weather Stations

Station Location Temp. Windchill Dew Point Humidity Wind Precip. Elev Updated Type
                   

Watches & Warnings

There are currently no watches in effect.